This is the latest recevied weather packets stored in our database for station/object E24CR-1. If no packets are shown the sender has not sent any weather packets the latest 10 day(s).
| Time | Temp. | Humidity | Pressure | Rain* | Wind** | Luminosity | Snow |
|---|---|---|---|---|---|---|---|
| 1777555911 | 26.67° C | 70% | 953 hPa | - | - | 0 W/m² | - |
| 1777555286 | 26.67° C | 69% | 953 hPa | - | - | 0 W/m² | - |
| 1777554660 | 26.67° C | 66% | 952 hPa | - | - | 0 W/m² | - |
| 1777554035 | 26.67° C | 67% | 952 hPa | - | - | 0 W/m² | - |
| 1777553410 | 27.22° C | 67% | 952 hPa | - | - | 0 W/m² | - |
| 1777552786 | 27.78° C | 63% | 952 hPa | - | - | 0 W/m² | - |
| 1777552155 | 27.78° C | 62% | 952 hPa | - | - | 0 W/m² | - |
| 1777551525 | 29.44° C | 55% | 951 hPa | - | - | 0 W/m² | - |
| 1777550900 | 27.22° C | 61% | 951 hPa | - | - | 0 W/m² | - |
| 1777550275 | 30° C | 55% | 951 hPa | - | - | 0 W/m² | - |
| 1777549649 | 30° C | 55% | 951 hPa | - | - | 0 W/m² | - |
| 1777549023 | 30° C | 55% | 951 hPa | - | - | 0 W/m² | - |
| 1777548398 | 30.56° C | 55% | 951 hPa | - | - | 0 W/m² | - |
| 1777547771 | 30.56° C | 54% | 950 hPa | - | - | 0 W/m² | - |
| 1777547144 | 30° C | 56% | 950 hPa | - | - | 0 W/m² | - |
| 1777546518 | 30° C | 57% | 950 hPa | - | - | 0 W/m² | - |
| 1777545893 | 29.44° C | 61% | 950 hPa | - | - | 0 W/m² | - |
| 1777545267 | 30° C | 58% | 950 hPa | - | - | 0 W/m² | - |
| 1777544642 | 29.44° C | 62% | 950 hPa | - | - | 0 W/m² | - |
| 1777544016 | 30° C | 53% | 950 hPa | - | - | 0 W/m² | - |
| 1777543391 | 29.44° C | 59% | 950 hPa | - | - | 0 W/m² | - |
| 1777542765 | 27.78° C | 65% | 950 hPa | - | - | 0 W/m² | - |
| 1777542140 | 25.56° C | 72% | 950 hPa | - | - | 0 W/m² | - |
| 1777541514 | 26.67° C | 67% | 949 hPa | - | - | 0 W/m² | - |
| 1777540889 | 26.11° C | 65% | 949 hPa | - | - | 0 W/m² | - |
* Rain since midnight (hover to see other rain measurements)
** Current wind speed in m/s (hover to see current wind gust speed)